sensor_id;sensor_type;location;lat;lon;timestamp;P1;durP1;ratioP1;P2;durP2;ratioP2
8544;SDS011;4310;51.054;6.994;2023-01-15T00:00:12;161.22;;;155.70;;
8544;SDS011;4310;51.054;6.994;2023-01-15T00:01:20;135.63;;;130.82;;
8544;SDS011;4310;51.054;6.994;2023-01-15T00:03:35;164.82;;;159.22;;
8544;SDS011;4310;51.054;6.994;2023-01-15T00:05:50;218.48;;;211.43;;
8544;SDS011;4310;51.054;6.994;2023-01-15T00:08:06;323.65;;;313.50;;
8544;SDS011;4310;51.054;6.994;2023-01-15T00:09:10;373.45;;;361.10;;
8544;SDS011;4310;51.054;6.994;2023-01-15T00:10:16;437.12;;;420.52;;
8544;SDS011;4310;51.054;6.994;2023-01-15T00:11:20;442.63;;;426.02;;
8544;SDS011;4310;51.054;6.994;2023-01-15T00:12:23;422.07;;;406.67;;
8544;SDS011;4310;51.054;6.994;2023-01-15T00:13:27;416.62;;;401.60;;
8544;SDS011;4310;51.054;6.994;2023-01-15T00:14:31;436.50;;;420.52;;
8544;SDS011;4310;51.054;6.994;2023-01-15T00:15:35;477.37;;;458.95;;
8544;SDS011;4310;51.054;6.994;2023-01-15T00:16:39;468.15;;;450.40;;
8544;SDS011;4310;51.054;6.994;2023-01-15T00:17:42;468.37;;;449.85;;
8544;SDS011;4310;51.054;6.994;2023-01-15T00:20:00;501.45;;;480.87;;
8544;SDS011;4310;51.054;6.994;2023-01-15T00:21:05;476.22;;;457.30;;
8544;SDS011;4310;51.054;6.994;2023-01-15T00:22:09;451.48;;;435.20;;
8544;SDS011;4310;51.054;6.994;2023-01-15T00:23:13;453.38;;;436.68;;
8544;SDS011;4310;51.054;6.994;2023-01-15T00:24:18;418.67;;;403.75;;
8544;SDS011;4310;51.054;6.994;2023-01-15T00:25:40;419.10;;;404.48;;
8544;SDS011;4310;51.054;6.994;2023-01-15T00:27:01;427.02;;;411.75;;
8544;SDS011;4310;51.054;6.994;2023-01-15T00:28:23;436.08;;;420.20;;
8544;SDS011;4310;51.054;6.994;2023-01-15T00:30:39;443.63;;;426.98;;
8544;SDS011;4310;51.054;6.994;2023-01-15T00:31:44;407.35;;;393.70;;
8544;SDS011;4310;51.054;6.994;2023-01-15T00:34:00;387.12;;;373.93;;
8544;SDS011;4310;51.054;6.994;2023-01-15T00:35:04;410.75;;;395.90;;
8544;SDS011;4310;51.054;6.994;2023-01-15T00:36:09;429.92;;;412.60;;
8544;SDS011;4310;51.054;6.994;2023-01-15T00:37:12;385.57;;;371.87;;
8544;SDS011;4310;51.054;6.994;2023-01-15T00:38:16;380.67;;;366.63;;
8544;SDS011;4310;51.054;6.994;2023-01-15T00:39:20;379.50;;;365.50;;
8544;SDS011;4310;51.054;6.994;2023-01-15T00:40:25;390.05;;;375.70;;
8544;SDS011;4310;51.054;6.994;2023-01-15T00:41:29;432.52;;;416.57;;
8544;SDS011;4310;51.054;6.994;2023-01-15T00:43:44;453.35;;;436.05;;
8544;SDS011;4310;51.054;6.994;2023-01-15T00:44:48;441.10;;;424.20;;
8544;SDS011;4310;51.054;6.994;2023-01-15T00:45:52;446.83;;;429.23;;
8544;SDS011;4310;51.054;6.994;2023-01-15T00:46:55;476.02;;;457.17;;
8544;SDS011;4310;51.054;6.994;2023-01-15T00:47:59;477.62;;;458.23;;
8544;SDS011;4310;51.054;6.994;2023-01-15T00:50:14;476.57;;;456.78;;
8544;SDS011;4310;51.054;6.994;2023-01-15T00:51:18;475.77;;;455.60;;
8544;SDS011;4310;51.054;6.994;2023-01-15T00:52:22;482.45;;;461.62;;
8544;SDS011;4310;51.054;6.994;2023-01-15T00:53:26;482.35;;;461.90;;
8544;SDS011;4310;51.054;6.994;2023-01-15T00:54:30;470.15;;;450.75;;
8544;SDS011;4310;51.054;6.994;2023-01-15T00:55:34;472.47;;;452.80;;
8544;SDS011;4310;51.054;6.994;2023-01-15T00:56:38;472.15;;;452.80;;
8544;SDS011;4310;51.054;6.994;2023-01-15T00:57:42;476.13;;;457.12;;
8544;SDS011;4310;51.054;6.994;2023-01-15T00:58:45;477.58;;;458.50;;
8544;SDS011;4310;51.054;6.994;2023-01-15T00:59:49;500.35;;;481.00;;
8544;SDS011;4310;51.054;6.994;2023-01-15T01:02:04;494.73;;;475.70;;
8544;SDS011;4310;51.054;6.994;2023-01-15T01:03:08;495.48;;;476.25;;
8544;SDS011;4310;51.054;6.994;2023-01-15T01:04:12;510.15;;;489.90;;
8544;SDS011;4310;51.054;6.994;2023-01-15T01:06:28;524.27;;;502.80;;
8544;SDS011;4310;51.054;6.994;2023-01-15T01:07:32;540.30;;;517.90;;
8544;SDS011;4310;51.054;6.994;2023-01-15T01:08:35;549.23;;;526.42;;
8544;SDS011;4310;51.054;6.994;2023-01-15T01:09:39;548.70;;;525.95;;
8544;SDS011;4310;51.054;6.994;2023-01-15T01:10:43;546.33;;;523.58;;
8544;SDS011;4310;51.054;6.994;2023-01-15T01:11:48;538.80;;;517.08;;
8544;SDS011;4310;51.054;6.994;2023-01-15T01:12:52;540.98;;;519.65;;
8544;SDS011;4310;51.054;6.994;2023-01-15T01:13:57;544.75;;;523.73;;
8544;SDS011;4310;51.054;6.994;2023-01-15T01:15:01;533.77;;;513.90;;
8544;SDS011;4310;51.054;6.994;2023-01-15T01:16:14;506.32;;;488.30;;
8544;SDS011;4310;51.054;6.994;2023-01-15T01:17:10;468.90;;;452.88;;
8544;SDS011;4310;51.054;6.994;2023-01-15T01:18:14;452.50;;;437.35;;
8544;SDS011;4310;51.054;6.994;2023-01-15T01:19:19;446.50;;;431.60;;
8544;SDS011;4310;51.054;6.994;2023-01-15T01:20:22;414.40;;;400.87;;
8544;SDS011;4310;51.054;6.994;2023-01-15T01:21:28;379.20;;;366.88;;
8544;SDS011;4310;51.054;6.994;2023-01-15T01:22:32;375.22;;;363.27;;
8544;SDS011;4310;51.054;6.994;2023-01-15T01:23:36;362.15;;;350.60;;
8544;SDS011;4310;51.054;6.994;2023-01-15T01:24:39;374.62;;;362.65;;
8544;SDS011;4310;51.054;6.994;2023-01-15T01:26:55;335.08;;;324.45;;
8544;SDS011;4310;51.054;6.994;2023-01-15T01:27:58;272.65;;;263.85;;
8544;SDS011;4310;51.054;6.994;2023-01-15T01:29:02;279.82;;;271.10;;
8544;SDS011;4310;51.054;6.994;2023-01-15T01:30:07;248.85;;;240.82;;
8544;SDS011;4310;51.054;6.994;2023-01-15T01:31:11;279.82;;;271.02;;
8544;SDS011;4310;51.054;6.994;2023-01-15T01:33:26;240.60;;;232.85;;
8544;SDS011;4310;51.054;6.994;2023-01-15T01:34:30;230.98;;;223.57;;
8544;SDS011;4310;51.054;6.994;2023-01-15T01:35:35;200.32;;;193.68;;
8544;SDS011;4310;51.054;6.994;2023-01-15T01:36:39;168.97;;;162.92;;
8544;SDS011;4310;51.054;6.994;2023-01-15T01:37:43;168.25;;;162.32;;
8544;SDS011;4310;51.054;6.994;2023-01-15T01:38:48;146.28;;;141.15;;
8544;SDS011;4310;51.054;6.994;2023-01-15T01:39:52;150.75;;;145.53;;
8544;SDS011;4310;51.054;6.994;2023-01-15T01:40:56;124.53;;;120.13;;
8544;SDS011;4310;51.054;6.994;2023-01-15T01:42:00;139.82;;;134.93;;
8544;SDS011;4310;51.054;6.994;2023-01-15T01:43:05;92.70;;;89.30;;
8544;SDS011;4310;51.054;6.994;2023-01-15T01:45:31;69.35;;;66.57;;
8544;SDS011;4310;51.054;6.994;2023-01-15T01:46:35;49.60;;;47.70;;
8544;SDS011;4310;51.054;6.994;2023-01-15T01:47:39;33.92;;;32.58;;
8544;SDS011;4310;51.054;6.994;2023-01-15T01:48:43;21.97;;;21.07;;
8544;SDS011;4310;51.054;6.994;2023-01-15T01:49:46;25.70;;;24.60;;
8544;SDS011;4310;51.054;6.994;2023-01-15T01:50:51;18.40;;;17.60;;
8544;SDS011;4310;51.054;6.994;2023-01-15T01:51:57;19.05;;;18.25;;
8544;SDS011;4310;51.054;6.994;2023-01-15T01:53:02;19.35;;;18.55;;
8544;SDS011;4310;51.054;6.994;2023-01-15T01:55:18;16.45;;;15.75;;
8544;SDS011;4310;51.054;6.994;2023-01-15T01:56:23;17.90;;;17.10;;
8544;SDS011;4310;51.054;6.994;2023-01-15T01:57:27;11.97;;;11.48;;
8544;SDS011;4310;51.054;6.994;2023-01-15T01:58:31;12.35;;;11.75;;
8544;SDS011;4310;51.054;6.994;2023-01-15T01:59:35;10.50;;;10.00;;
8544;SDS011;4310;51.054;6.994;2023-01-15T02:00:40;7.40;;;7.00;;
8544;SDS011;4310;51.054;6.994;2023-01-15T02:01:44;4.03;;;3.83;;
8544;SDS011;4310;51.054;6.994;2023-01-15T02:02:48;4.50;;;4.28;;
8544;SDS011;4310;51.054;6.994;2023-01-15T02:03:53;3.20;;;3.00;;
8544;SDS011;4310;51.054;6.994;2023-01-15T02:04:57;1.80;;;1.70;;
8544;SDS011;4310;51.054;6.994;2023-01-15T02:06:00;1.90;;;1.80;;
8544;SDS011;4310;51.054;6.994;2023-01-15T02:07:05;2.10;;;2.00;;
8544;SDS011;4310;51.054;6.994;2023-01-15T02:08:09;2.20;;;2.00;;
8544;SDS011;4310;51.054;6.994;2023-01-15T02:09:12;2.33;;;2.10;;
8544;SDS011;4310;51.054;6.994;2023-01-15T02:10:16;2.60;;;2.40;;
8544;SDS011;4310;51.054;6.994;2023-01-15T02:11:21;2.65;;;2.55;;
8544;SDS011;4310;51.054;6.994;2023-01-15T02:12:26;2.62;;;2.42;;
8544;SDS011;4310;51.054;6.994;2023-01-15T02:13:33;3.02;;;2.72;;
8544;SDS011;4310;51.054;6.994;2023-01-15T02:14:37;2.77;;;2.67;;
8544;SDS011;4310;51.054;6.994;2023-01-15T02:15:42;2.70;;;2.60;;
8544;SDS011;4310;51.054;6.994;2023-01-15T02:16:47;2.92;;;2.70;;
8544;SDS011;4310;51.054;6.994;2023-01-15T02:17:52;3.83;;;3.45;;
8544;SDS011;4310;51.054;6.994;2023-01-15T02:18:58;4.28;;;4.08;;
8544;SDS011;4310;51.054;6.994;2023-01-15T02:21:22;3.87;;;3.50;;
8544;SDS011;4310;51.054;6.994;2023-01-15T02:22:27;3.40;;;3.20;;
8544;SDS011;4310;51.054;6.994;2023-01-15T02:23:43;4.00;;;3.80;;
8544;SDS011;4310;51.054;6.994;2023-01-15T02:24:48;4.58;;;4.37;;
8544;SDS011;4310;51.054;6.994;2023-01-15T02:27:23;4.03;;;3.80;;
8544;SDS011;4310;51.054;6.994;2023-01-15T02:30:55;3.60;;;3.30;;
8544;SDS011;4310;51.054;6.994;2023-01-15T02:31:59;3.12;;;3.02;;
8544;SDS011;4310;51.054;6.994;2023-01-15T02:33:05;3.10;;;2.90;;
8544;SDS011;4310;51.054;6.994;2023-01-15T02:34:11;3.60;;;3.40;;
8544;SDS011;4310;51.054;6.994;2023-01-15T02:35:15;3.50;;;3.22;;
8544;SDS011;4310;51.054;6.994;2023-01-15T02:36:20;3.37;;;3.17;;
8544;SDS011;4310;51.054;6.994;2023-01-15T02:37:25;2.80;;;2.70;;
8544;SDS011;4310;51.054;6.994;2023-01-15T02:38:30;2.80;;;2.55;;
8544;SDS011;4310;51.054;6.994;2023-01-15T02:39:35;3.20;;;3.00;;
8544;SDS011;4310;51.054;6.994;2023-01-15T02:40:40;2.90;;;2.80;;
8544;SDS011;4310;51.054;6.994;2023-01-15T02:41:45;3.23;;;2.97;;
8544;SDS011;4310;51.054;6.994;2023-01-15T02:42:50;3.20;;;3.10;;
8544;SDS011;4310;51.054;6.994;2023-01-15T02:43:55;3.22;;;3.02;;
8544;SDS011;4310;51.054;6.994;2023-01-15T02:44:59;3.20;;;3.05;;
8544;SDS011;4310;51.054;6.994;2023-01-15T02:46:04;3.27;;;3.08;;
8544;SDS011;4310;51.054;6.994;2023-01-15T02:47:09;3.10;;;2.90;;
8544;SDS011;4310;51.054;6.994;2023-01-15T02:48:13;2.85;;;2.65;;
8544;SDS011;4310;51.054;6.994;2023-01-15T02:49:18;2.83;;;2.62;;
8544;SDS011;4310;51.054;6.994;2023-01-15T02:50:24;2.45;;;2.35;;
8544;SDS011;4310;51.054;6.994;2023-01-15T02:51:29;2.67;;;2.30;;
8544;SDS011;4310;51.054;6.994;2023-01-15T02:53:45;2.37;;;2.20;;
8544;SDS011;4310;51.054;6.994;2023-01-15T02:54:51;2.20;;;2.10;;
8544;SDS011;4310;51.054;6.994;2023-01-15T02:55:57;2.00;;;1.90;;
8544;SDS011;4310;51.054;6.994;2023-01-15T02:57:01;2.20;;;2.10;;
8544;SDS011;4310;51.054;6.994;2023-01-15T02:59:17;2.17;;;2.07;;
8544;SDS011;4310;51.054;6.994;2023-01-15T03:00:22;1.90;;;1.80;;
8544;SDS011;4310;51.054;6.994;2023-01-15T03:01:29;2.40;;;2.20;;
8544;SDS011;4310;51.054;6.994;2023-01-15T03:02:34;2.45;;;2.35;;
8544;SDS011;4310;51.054;6.994;2023-01-15T03:03:41;2.50;;;2.37;;
8544;SDS011;4310;51.054;6.994;2023-01-15T03:04:45;2.42;;;2.22;;
8544;SDS011;4310;51.054;6.994;2023-01-15T03:05:51;2.45;;;2.30;;
8544;SDS011;4310;51.054;6.994;2023-01-15T03:06:58;2.50;;;2.30;;
8544;SDS011;4310;51.054;6.994;2023-01-15T03:08:02;2.92;;;2.72;;
8544;SDS011;4310;51.054;6.994;2023-01-15T03:09:08;2.92;;;2.70;;
8544;SDS011;4310;51.054;6.994;2023-01-15T03:10:12;2.77;;;2.58;;
8544;SDS011;4310;51.054;6.994;2023-01-15T03:11:16;2.55;;;2.33;;
8544;SDS011;4310;51.054;6.994;2023-01-15T03:12:22;2.77;;;2.67;;
8544;SDS011;4310;51.054;6.994;2023-01-15T03:13:28;2.17;;;2.00;;
8544;SDS011;4310;51.054;6.994;2023-01-15T03:14:33;2.20;;;2.10;;
8544;SDS011;4310;51.054;6.994;2023-01-15T03:15:39;2.80;;;2.60;;
8544;SDS011;4310;51.054;6.994;2023-01-15T03:18:12;2.90;;;2.70;;
8544;SDS011;4310;51.054;6.994;2023-01-15T03:20:30;3.37;;;3.10;;
8544;SDS011;4310;51.054;6.994;2023-01-15T03:21:37;2.80;;;2.60;;
8544;SDS011;4310;51.054;6.994;2023-01-15T03:22:43;2.65;;;2.55;;
8544;SDS011;4310;51.054;6.994;2023-01-15T03:23:47;3.20;;;2.95;;
8544;SDS011;4310;51.054;6.994;2023-01-15T03:24:52;3.60;;;3.30;;
8544;SDS011;4310;51.054;6.994;2023-01-15T03:25:56;3.60;;;3.40;;
8544;SDS011;4310;51.054;6.994;2023-01-15T03:27:00;4.22;;;3.92;;
8544;SDS011;4310;51.054;6.994;2023-01-15T03:28:04;3.20;;;2.90;;
8544;SDS011;4310;51.054;6.994;2023-01-15T03:29:08;3.35;;;3.15;;
8544;SDS011;4310;51.054;6.994;2023-01-15T03:30:13;3.22;;;3.02;;
8544;SDS011;4310;51.054;6.994;2023-01-15T03:31:17;3.35;;;3.05;;
8544;SDS011;4310;51.054;6.994;2023-01-15T03:32:21;3.33;;;3.02;;
8544;SDS011;4310;51.054;6.994;2023-01-15T03:33:25;3.45;;;3.25;;
8544;SDS011;4310;51.054;6.994;2023-01-15T03:35:45;3.17;;;2.95;;
8544;SDS011;4310;51.054;6.994;2023-01-15T03:36:49;3.27;;;3.00;;
8544;SDS011;4310;51.054;6.994;2023-01-15T03:37:53;2.70;;;2.50;;
8544;SDS011;4310;51.054;6.994;2023-01-15T03:38:57;3.22;;;2.55;;
8544;SDS011;4310;51.054;6.994;2023-01-15T03:40:01;2.60;;;2.40;;
8544;SDS011;4310;51.054;6.994;2023-01-15T03:41:11;2.90;;;2.70;;
8544;SDS011;4310;51.054;6.994;2023-01-15T03:43:30;2.90;;;2.42;;
8544;SDS011;4310;51.054;6.994;2023-01-15T03:44:45;2.45;;;2.20;;
8544;SDS011;4310;51.054;6.994;2023-01-15T03:45:49;2.70;;;2.50;;
8544;SDS011;4310;51.054;6.994;2023-01-15T03:46:58;2.67;;;2.47;;
8544;SDS011;4310;51.054;6.994;2023-01-15T03:48:03;2.80;;;2.40;;
8544;SDS011;4310;51.054;6.994;2023-01-15T03:51:32;2.50;;;2.30;;
8544;SDS011;4310;51.054;6.994;2023-01-15T03:52:37;2.30;;;1.80;;
8544;SDS011;4310;51.054;6.994;2023-01-15T03:53:42;3.12;;;2.00;;
8544;SDS011;4310;51.054;6.994;2023-01-15T03:54:48;2.83;;;1.80;;
8544;SDS011;4310;51.054;6.994;2023-01-15T03:55:53;3.12;;;1.70;;
8544;SDS011;4310;51.054;6.994;2023-01-15T03:56:58;2.40;;;1.70;;
8544;SDS011;4310;51.054;6.994;2023-01-15T03:58:04;3.00;;;1.60;;
8544;SDS011;4310;51.054;6.994;2023-01-15T04:00:21;2.85;;;1.52;;
8544;SDS011;4310;51.054;6.994;2023-01-15T04:01:26;2.40;;;1.47;;
8544;SDS011;4310;51.054;6.994;2023-01-15T04:02:32;2.77;;;1.70;;
8544;SDS011;4310;51.054;6.994;2023-01-15T04:03:36;2.08;;;1.50;;
8544;SDS011;4310;51.054;6.994;2023-01-15T04:04:41;1.75;;;1.42;;
8544;SDS011;4310;51.054;6.994;2023-01-15T04:05:46;3.08;;;1.50;;
8544;SDS011;4310;51.054;6.994;2023-01-15T04:06:51;2.62;;;1.50;;
8544;SDS011;4310;51.054;6.994;2023-01-15T04:07:55;2.50;;;0.93;;
8544;SDS011;4310;51.054;6.994;2023-01-15T04:09:00;1.60;;;1.00;;
8544;SDS011;4310;51.054;6.994;2023-01-15T04:10:07;2.27;;;1.30;;
8544;SDS011;4310;51.054;6.994;2023-01-15T04:11:11;3.17;;;1.32;;
8544;SDS011;4310;51.054;6.994;2023-01-15T04:13:26;1.95;;;1.30;;
8544;SDS011;4310;51.054;6.994;2023-01-15T04:14:30;2.63;;;1.20;;
8544;SDS011;4310;51.054;6.994;2023-01-15T04:15:33;2.80;;;1.40;;
8544;SDS011;4310;51.054;6.994;2023-01-15T04:16:37;2.22;;;1.35;;
8544;SDS011;4310;51.054;6.994;2023-01-15T04:17:41;1.65;;;1.40;;
8544;SDS011;4310;51.054;6.994;2023-01-15T04:18:45;3.10;;;1.47;;
8544;SDS011;4310;51.054;6.994;2023-01-15T04:21:00;2.37;;;1.27;;
8544;SDS011;4310;51.054;6.994;2023-01-15T04:22:04;2.55;;;1.50;;
8544;SDS011;4310;51.054;6.994;2023-01-15T04:23:07;2.30;;;1.20;;
8544;SDS011;4310;51.054;6.994;2023-01-15T04:24:11;1.98;;;1.60;;
8544;SDS011;4310;51.054;6.994;2023-01-15T04:26:26;2.62;;;1.40;;
8544;SDS011;4310;51.054;6.994;2023-01-15T04:28:41;2.85;;;1.32;;
8544;SDS011;4310;51.054;6.994;2023-01-15T04:29:45;2.62;;;1.50;;
8544;SDS011;4310;51.054;6.994;2023-01-15T04:30:49;2.25;;;1.50;;
8544;SDS011;4310;51.054;6.994;2023-01-15T04:31:52;2.95;;;1.60;;
8544;SDS011;4310;51.054;6.994;2023-01-15T04:32:58;4.03;;;1.70;;
8544;SDS011;4310;51.054;6.994;2023-01-15T04:34:02;2.25;;;1.70;;
8544;SDS011;4310;51.054;6.994;2023-01-15T04:35:06;2.02;;;1.72;;
8544;SDS011;4310;51.054;6.994;2023-01-15T04:36:10;2.70;;;1.60;;
8544;SDS011;4310;51.054;6.994;2023-01-15T04:38:25;3.42;;;1.77;;
8544;SDS011;4310;51.054;6.994;2023-01-15T04:39:28;2.62;;;1.60;;
8544;SDS011;4310;51.054;6.994;2023-01-15T04:40:32;4.05;;;1.60;;
8544;SDS011;4310;51.054;6.994;2023-01-15T04:41:54;2.60;;;1.70;;
8544;SDS011;4310;51.054;6.994;2023-01-15T04:44:37;2.27;;;1.80;;
8544;SDS011;4310;51.054;6.994;2023-01-15T04:45:42;4.47;;;2.10;;
8544;SDS011;4310;51.054;6.994;2023-01-15T04:46:46;3.05;;;1.90;;
8544;SDS011;4310;51.054;6.994;2023-01-15T04:47:50;2.85;;;2.08;;
8544;SDS011;4310;51.054;6.994;2023-01-15T04:48:53;3.22;;;2.12;;
8544;SDS011;4310;51.054;6.994;2023-01-15T04:51:08;4.12;;;2.40;;
8544;SDS011;4310;51.054;6.994;2023-01-15T04:52:12;4.40;;;2.12;;
8544;SDS011;4310;51.054;6.994;2023-01-15T04:53:16;3.25;;;2.40;;
8544;SDS011;4310;51.054;6.994;2023-01-15T04:54:20;3.52;;;2.40;;
8544;SDS011;4310;51.054;6.994;2023-01-15T04:55:24;4.53;;;2.70;;
8544;SDS011;4310;51.054;6.994;2023-01-15T04:56:28;2.85;;;2.30;;
8544;SDS011;4310;51.054;6.994;2023-01-15T04:57:31;3.20;;;2.30;;
8544;SDS011;4310;51.054;6.994;2023-01-15T04:58:36;3.90;;;2.58;;
8544;SDS011;4310;51.054;6.994;2023-01-15T04:59:40;3.37;;;2.72;;
8544;SDS011;4310;51.054;6.994;2023-01-15T05:00:44;3.85;;;2.85;;
8544;SDS011;4310;51.054;6.994;2023-01-15T05:01:48;4.20;;;2.90;;
8544;SDS011;4310;51.054;6.994;2023-01-15T05:02:51;3.95;;;2.70;;
8544;SDS011;4310;51.054;6.994;2023-01-15T05:03:55;4.35;;;2.85;;
8544;SDS011;4310;51.054;6.994;2023-01-15T05:06:12;4.22;;;3.12;;
8544;SDS011;4310;51.054;6.994;2023-01-15T05:07:15;5.08;;;3.10;;
8544;SDS011;4310;51.054;6.994;2023-01-15T05:08:19;4.85;;;3.05;;
8544;SDS011;4310;51.054;6.994;2023-01-15T05:09:23;4.42;;;3.50;;
8544;SDS011;4310;51.054;6.994;2023-01-15T05:10:27;4.42;;;3.12;;
8544;SDS011;4310;51.054;6.994;2023-01-15T05:12:42;4.40;;;3.30;;
8544;SDS011;4310;51.054;6.994;2023-01-15T05:13:46;6.58;;;3.08;;
8544;SDS011;4310;51.054;6.994;2023-01-15T05:14:50;4.97;;;2.75;;
8544;SDS011;4310;51.054;6.994;2023-01-15T05:15:53;4.83;;;3.00;;
8544;SDS011;4310;51.054;6.994;2023-01-15T05:16:57;5.55;;;3.10;;
8544;SDS011;4310;51.054;6.994;2023-01-15T05:18:01;3.90;;;3.00;;
8544;SDS011;4310;51.054;6.994;2023-01-15T05:19:05;3.95;;;2.62;;
8544;SDS011;4310;51.054;6.994;2023-01-15T05:21:22;3.93;;;2.90;;
8544;SDS011;4310;51.054;6.994;2023-01-15T05:22:26;4.42;;;2.90;;
8544;SDS011;4310;51.054;6.994;2023-01-15T05:23:29;4.33;;;2.60;;
8544;SDS011;4310;51.054;6.994;2023-01-15T05:24:33;4.00;;;2.80;;
8544;SDS011;4310;51.054;6.994;2023-01-15T05:25:37;4.35;;;2.90;;
8544;SDS011;4310;51.054;6.994;2023-01-15T05:26:41;3.67;;;3.30;;
8544;SDS011;4310;51.054;6.994;2023-01-15T05:27:45;5.12;;;2.95;;
8544;SDS011;4310;51.054;6.994;2023-01-15T05:28:48;5.05;;;3.08;;
8544;SDS011;4310;51.054;6.994;2023-01-15T05:29:53;4.22;;;2.80;;
8544;SDS011;4310;51.054;6.994;2023-01-15T05:30:56;5.58;;;3.10;;
8544;SDS011;4310;51.054;6.994;2023-01-15T05:32:00;6.35;;;2.90;;
8544;SDS011;4310;51.054;6.994;2023-01-15T05:33:04;4.85;;;2.90;;
8544;SDS011;4310;51.054;6.994;2023-01-15T05:34:08;4.62;;;2.85;;
8544;SDS011;4310;51.054;6.994;2023-01-15T05:35:12;5.33;;;2.65;;
8544;SDS011;4310;51.054;6.994;2023-01-15T05:36:16;3.58;;;2.72;;
8544;SDS011;4310;51.054;6.994;2023-01-15T05:37:20;4.47;;;2.37;;
8544;SDS011;4310;51.054;6.994;2023-01-15T05:38:24;4.47;;;2.62;;
8544;SDS011;4310;51.054;6.994;2023-01-15T05:39:28;5.12;;;2.75;;
8544;SDS011;4310;51.054;6.994;2023-01-15T05:40:31;4.45;;;2.60;;
8544;SDS011;4310;51.054;6.994;2023-01-15T05:41:36;5.15;;;2.60;;
8544;SDS011;4310;51.054;6.994;2023-01-15T05:42:52;5.28;;;2.55;;
8544;SDS011;4310;51.054;6.994;2023-01-15T05:43:56;4.83;;;2.50;;
8544;SDS011;4310;51.054;6.994;2023-01-15T05:45:01;3.50;;;2.72;;
8544;SDS011;4310;51.054;6.994;2023-01-15T05:46:04;3.08;;;2.35;;
8544;SDS011;4310;51.054;6.994;2023-01-15T05:47:08;4.97;;;2.50;;
8544;SDS011;4310;51.054;6.994;2023-01-15T05:48:12;3.92;;;2.35;;
8544;SDS011;4310;51.054;6.994;2023-01-15T05:49:17;4.42;;;2.50;;
8544;SDS011;4310;51.054;6.994;2023-01-15T05:50:21;3.47;;;2.47;;
8544;SDS011;4310;51.054;6.994;2023-01-15T05:51:26;3.87;;;2.50;;
8544;SDS011;4310;51.054;6.994;2023-01-15T05:52:29;7.50;;;2.72;;
8544;SDS011;4310;51.054;6.994;2023-01-15T05:53:33;5.65;;;2.47;;
8544;SDS011;4310;51.054;6.994;2023-01-15T05:54:37;3.20;;;2.40;;
8544;SDS011;4310;51.054;6.994;2023-01-15T05:55:40;3.87;;;2.52;;
8544;SDS011;4310;51.054;6.994;2023-01-15T05:56:44;5.60;;;2.80;;
8544;SDS011;4310;51.054;6.994;2023-01-15T05:57:49;4.55;;;2.42;;
8544;SDS011;4310;51.054;6.994;2023-01-15T05:58:52;4.45;;;2.72;;
8544;SDS011;4310;51.054;6.994;2023-01-15T05:59:56;4.90;;;3.02;;
8544;SDS011;4310;51.054;6.994;2023-01-15T06:01:04;3.58;;;2.22;;
8544;SDS011;4310;51.054;6.994;2023-01-15T06:02:05;4.37;;;2.30;;
8544;SDS011;4310;51.054;6.994;2023-01-15T06:03:09;5.00;;;2.40;;
8544;SDS011;4310;51.054;6.994;2023-01-15T06:04:13;4.58;;;2.10;;
8544;SDS011;4310;51.054;6.994;2023-01-15T06:05:17;5.78;;;2.17;;
8544;SDS011;4310;51.054;6.994;2023-01-15T06:06:21;4.90;;;2.00;;
8544;SDS011;4310;51.054;6.994;2023-01-15T06:08:36;5.08;;;2.10;;
8544;SDS011;4310;51.054;6.994;2023-01-15T06:09:40;4.12;;;2.15;;
8544;SDS011;4310;51.054;6.994;2023-01-15T06:10:44;5.22;;;2.27;;
8544;SDS011;4310;51.054;6.994;2023-01-15T06:11:48;3.85;;;2.00;;
8544;SDS011;4310;51.054;6.994;2023-01-15T06:12:52;5.28;;;2.10;;
8544;SDS011;4310;51.054;6.994;2023-01-15T06:13:55;5.37;;;2.30;;
8544;SDS011;4310;51.054;6.994;2023-01-15T06:14:59;4.85;;;1.98;;
8544;SDS011;4310;51.054;6.994;2023-01-15T06:16:03;5.08;;;2.20;;
8544;SDS011;4310;51.054;6.994;2023-01-15T06:17:07;5.72;;;2.10;;
8544;SDS011;4310;51.054;6.994;2023-01-15T06:18:11;2.87;;;2.05;;
8544;SDS011;4310;51.054;6.994;2023-01-15T06:19:15;5.85;;;2.33;;
8544;SDS011;4310;51.054;6.994;2023-01-15T06:20:18;4.05;;;1.92;;
8544;SDS011;4310;51.054;6.994;2023-01-15T06:22:33;5.67;;;2.27;;
8544;SDS011;4310;51.054;6.994;2023-01-15T06:23:39;4.58;;;2.35;;
8544;SDS011;4310;51.054;6.994;2023-01-15T06:24:43;5.08;;;2.05;;
8544;SDS011;4310;51.054;6.994;2023-01-15T06:25:47;4.80;;;2.33;;
8544;SDS011;4310;51.054;6.994;2023-01-15T06:26:51;3.37;;;2.00;;
8544;SDS011;4310;51.054;6.994;2023-01-15T06:27:55;5.33;;;2.50;;
8544;SDS011;4310;51.054;6.994;2023-01-15T06:28:58;3.77;;;2.33;;
8544;SDS011;4310;51.054;6.994;2023-01-15T06:30:02;3.42;;;2.10;;
8544;SDS011;4310;51.054;6.994;2023-01-15T06:32:18;6.23;;;2.70;;
8544;SDS011;4310;51.054;6.994;2023-01-15T06:33:22;4.90;;;2.60;;
8544;SDS011;4310;51.054;6.994;2023-01-15T06:34:26;5.28;;;2.60;;
8544;SDS011;4310;51.054;6.994;2023-01-15T06:35:30;4.03;;;2.40;;
8544;SDS011;4310;51.054;6.994;2023-01-15T06:36:34;4.50;;;2.50;;
8544;SDS011;4310;51.054;6.994;2023-01-15T06:37:37;4.87;;;2.80;;
8544;SDS011;4310;51.054;6.994;2023-01-15T06:39:53;5.00;;;2.55;;
8544;SDS011;4310;51.054;6.994;2023-01-15T06:40:57;4.45;;;2.77;;
8544;SDS011;4310;51.054;6.994;2023-01-15T06:42:01;4.62;;;2.55;;
8544;SDS011;4310;51.054;6.994;2023-01-15T06:43:23;5.78;;;3.00;;
8544;SDS011;4310;51.054;6.994;2023-01-15T06:44:44;3.00;;;2.65;;
8544;SDS011;4310;51.054;6.994;2023-01-15T06:46:07;5.08;;;2.90;;
8544;SDS011;4310;51.054;6.994;2023-01-15T06:47:28;3.47;;;3.00;;
8544;SDS011;4310;51.054;6.994;2023-01-15T06:48:32;4.53;;;2.65;;
8544;SDS011;4310;51.054;6.994;2023-01-15T06:49:36;4.60;;;3.00;;
8544;SDS011;4310;51.054;6.994;2023-01-15T06:50:41;4.60;;;2.90;;
8544;SDS011;4310;51.054;6.994;2023-01-15T06:51:45;4.45;;;3.30;;
8544;SDS011;4310;51.054;6.994;2023-01-15T06:54:00;4.35;;;3.42;;
8544;SDS011;4310;51.054;6.994;2023-01-15T06:56:16;4.12;;;3.10;;
8544;SDS011;4310;51.054;6.994;2023-01-15T06:57:19;4.05;;;3.40;;
8544;SDS011;4310;51.054;6.994;2023-01-15T06:58:23;2.72;;;2.50;;
8544;SDS011;4310;51.054;6.994;2023-01-15T06:59:27;4.30;;;3.25;;
8544;SDS011;4310;51.054;6.994;2023-01-15T07:00:30;4.67;;;3.50;;
8544;SDS011;4310;51.054;6.994;2023-01-15T07:01:35;4.15;;;3.25;;
8544;SDS011;4310;51.054;6.994;2023-01-15T07:02:38;4.25;;;3.20;;
8544;SDS011;4310;51.054;6.994;2023-01-15T07:03:43;3.83;;;3.40;;
8544;SDS011;4310;51.054;6.994;2023-01-15T07:04:46;4.08;;;3.33;;
8544;SDS011;4310;51.054;6.994;2023-01-15T07:05:50;5.47;;;3.47;;
8544;SDS011;4310;51.054;6.994;2023-01-15T07:06:54;3.92;;;3.62;;
8544;SDS011;4310;51.054;6.994;2023-01-15T07:07:58;4.78;;;3.62;;
8544;SDS011;4310;51.054;6.994;2023-01-15T07:09:02;4.55;;;4.05;;
8544;SDS011;4310;51.054;6.994;2023-01-15T07:10:07;3.90;;;3.60;;
8544;SDS011;4310;51.054;6.994;2023-01-15T07:11:10;6.22;;;4.00;;
8544;SDS011;4310;51.054;6.994;2023-01-15T07:12:15;4.40;;;3.98;;
8544;SDS011;4310;51.054;6.994;2023-01-15T07:13:19;5.05;;;4.55;;
8544;SDS011;4310;51.054;6.994;2023-01-15T07:14:24;5.00;;;4.15;;
8544;SDS011;4310;51.054;6.994;2023-01-15T07:15:28;5.10;;;4.42;;
8544;SDS011;4310;51.054;6.994;2023-01-15T07:16:32;5.53;;;4.40;;
8544;SDS011;4310;51.054;6.994;2023-01-15T07:17:36;4.55;;;4.10;;
8544;SDS011;4310;51.054;6.994;2023-01-15T07:18:40;5.30;;;4.45;;
8544;SDS011;4310;51.054;6.994;2023-01-15T07:19:44;4.70;;;4.12;;
8544;SDS011;4310;51.054;6.994;2023-01-15T07:20:48;4.90;;;4.20;;
8544;SDS011;4310;51.054;6.994;2023-01-15T07:23:03;5.22;;;4.40;;
8544;SDS011;4310;51.054;6.994;2023-01-15T07:24:07;5.30;;;4.10;;
8544;SDS011;4310;51.054;6.994;2023-01-15T07:25:12;4.20;;;3.80;;
8544;SDS011;4310;51.054;6.994;2023-01-15T07:26:15;4.70;;;3.70;;
8544;SDS011;4310;51.054;6.994;2023-01-15T07:27:19;4.95;;;4.20;;
8544;SDS011;4310;51.054;6.994;2023-01-15T07:28:23;4.92;;;4.40;;
8544;SDS011;4310;51.054;6.994;2023-01-15T07:29:27;5.10;;;4.30;;
8544;SDS011;4310;51.054;6.994;2023-01-15T07:30:30;5.20;;;4.75;;